Time;durP1;ratioP1;P1;durP2;ratioP2;P2;SDS_P1;SDS_P2;PMS_P1;PMS_P2;Temp;Humidity;BMP_temperature;BMP_pressure;BME280_temperature;BME280_humidity;BME280_pressure;Samples;Min_cycle;Max_cycle;Signal;HPM_P1;HPM_P2
2022/08/03 00:01:35;;;;;;;57.25;53.83;;;27.50;52.80;;;;;;5034047;28;20044;-78
2022/08/03 00:04:01;;;;;;;55.65;52.60;;;27.50;52.50;;;;;;5051014;28;20020;-78
2022/08/03 00:06:27;;;;;;;46.90;44.60;;;27.50;52.10;;;;;;5034108;28;20040;-79
2022/08/03 00:08:53;;;;;;;41.88;39.83;;;27.50;52.50;;;;;;5050724;28;20535;-78
2022/08/03 00:11:19;;;;;;;47.92;45.60;;;27.50;51.80;;;;;;5050265;28;20033;-78
2022/08/03 00:13:45;;;;;;;45.90;43.50;;;27.40;51.90;;;;;;5050799;28;20036;-78
2022/08/03 00:16:12;;;;;;;50.25;47.63;;;27.30;52.20;;;;;;5049943;28;20025;-78
2022/08/03 00:18:38;;;;;;;49.47;47.00;;;27.30;52.50;;;;;;5033872;28;20048;-80
2022/08/03 00:21:04;;;;;;;50.00;47.45;;;27.30;52.80;;;;;;5034162;28;20040;-80
2022/08/03 00:23:30;;;;;;;52.40;49.55;;;27.20;52.90;;;;;;5050408;28;20037;-79
2022/08/03 00:25:56;;;;;;;58.33;55.42;;;27.20;53.00;;;;;;5050244;28;20475;-80
2022/08/03 00:28:22;;;;;;;50.55;48.05;;;27.20;53.10;;;;;;5033616;28;20052;-78
2022/08/03 00:30:49;;;;;;;46.58;44.25;;;27.20;53.20;;;;;;5049752;28;20037;-79
2022/08/03 00:33:15;;;;;;;47.30;44.90;;;27.20;53.50;;;;;;5050357;28;20395;-78
2022/08/03 00:35:41;;;;;;;46.95;44.50;;;27.10;53.60;;;;;;5050052;28;20056;-78
2022/08/03 00:38:07;;;;;;;58.08;55.25;;;27.10;53.70;;;;;;5049241;28;20491;-79
2022/08/03 00:40:33;;;;;;;69.05;65.65;;;27.00;53.80;;;;;;5013628;28;20037;-79
2022/08/03 00:43:01;;;;;;;60.15;57.15;;;27.00;53.90;;;;;;5030207;28;20044;-78
2022/08/03 00:45:34;;;;;;;59.50;56.63;;;27.00;53.90;;;;;;5048847;28;20033;-78
2022/08/03 00:48:01;;;;;;;56.85;53.92;;;27.00;54.10;;;;;;5050072;28;20476;-79
2022/08/03 00:50:29;;;;;;;69.50;65.78;;;26.90;54.20;;;;;;5033488;28;20025;-78
2022/08/03 00:52:57;;;;;;;68.25;64.93;;;26.90;54.20;;;;;;5051172;28;20044;-79
2022/08/03 00:55:23;;;;;;;58.35;55.25;;;26.90;54.40;;;;;;5049606;28;20021;-79
2022/08/03 00:57:49;;;;;;;69.78;66.25;;;26.80;54.50;;;;;;5033105;28;20044;-79
2022/08/03 01:00:19;;;;;;;62.83;59.60;;;26.80;54.50;;;;;;5032457;28;20073;-79
2022/08/03 01:02:46;;;;;;;52.05;49.33;;;26.70;54.70;;;;;;5033370;28;20029;-79
2022/08/03 01:05:12;;;;;;;48.75;46.25;;;26.70;54.80;;;;;;5033238;28;20032;-79
2022/08/03 01:07:56;;;;;;;54.78;52.08;;;26.70;54.80;;;;;;5032631;28;20037;-79
2022/08/03 01:10:45;;;;;;;54.95;52.20;;;26.60;54.70;;;;;;5050632;28;20039;-79
2022/08/03 01:13:15;;;;;;;57.40;54.55;;;26.60;54.70;;;;;;5008661;28;20046;-79
2022/08/03 01:16:05;;;;;;;60.08;57.03;;;26.60;54.90;;;;;;5007952;28;20416;-78
2022/08/03 01:18:42;;;;;;;58.33;55.35;;;26.50;54.80;;;;;;5008135;28;20053;-79
2022/08/03 01:21:13;;;;;;;50.33;47.78;;;26.60;54.90;;;;;;5008759;28;20037;-79
2022/08/03 01:23:54;;;;;;;;;;;26.50;55.00;;;;;;5008232;28;20041;-79
2022/08/03 01:26:51;;;;;;;60.85;57.72;;;26.40;55.90;;;;;;5008851;28;19912;-79
2022/08/03 01:29:47;;;;;;;73.10;69.30;;;26.30;56.00;;;;;;4992377;28;20037;-79
2022/08/03 01:32:41;;;;;;;66.20;62.90;;;26.20;56.50;;;;;;5008065;28;20503;-79
2022/08/03 01:35:13;;;;;;;46.80;44.30;;;26.20;56.30;;;;;;4991888;28;20043;-79
2022/08/03 01:37:46;;;;;;;47.60;45.20;;;26.20;56.40;;;;;;4985006;28;20050;-79
2022/08/03 01:40:12;;;;;;;38.70;36.67;;;26.20;56.30;;;;;;5000397;28;20381;-79
2022/08/03 01:42:39;;;;;;;42.40;40.20;;;26.20;56.40;;;;;;4989087;28;20047;-79
2022/08/03 01:45:07;;;;;;;41.92;39.78;;;26.20;56.10;;;;;;4991189;28;20049;-79
2022/08/03 01:47:33;;;;;;;37.97;35.88;;;26.10;56.10;;;;;;4988349;28;20109;-79
2022/08/03 01:50:00;;;;;;;40.40;37.97;;;26.10;56.00;;;;;;4979124;28;20038;-79
2022/08/03 01:52:26;;;;;;;44.67;42.33;;;26.10;56.30;;;;;;4975521;28;20053;-78
2022/08/03 01:54:52;;;;;;;46.85;44.25;;;26.10;56.00;;;;;;4975960;28;20394;-78
2022/08/03 01:57:18;;;;;;;43.28;41.08;;;26.00;56.00;;;;;;4975867;28;20053;-79
2022/08/03 01:59:45;;;;;;;46.35;43.78;;;26.00;56.10;;;;;;4975710;28;20038;-79
2022/08/03 02:02:12;;;;;;;46.13;43.85;;;26.00;56.20;;;;;;4975169;28;20034;-79
2022/08/03 02:04:38;;;;;;;44.22;41.63;;;26.00;56.40;;;;;;4975686;28;20041;-79
2022/08/03 02:07:04;;;;;;;46.95;44.13;;;26.00;56.20;;;;;;4975679;28;20484;-79
2022/08/03 02:09:30;;;;;;;42.53;40.13;;;25.90;56.30;;;;;;4975565;28;20045;-79
2022/08/03 02:11:56;;;;;;;34.33;32.50;;;25.80;56.00;;;;;;4991117;28;20044;-79
2022/08/03 02:14:22;;;;;;;35.28;33.38;;;25.80;55.40;;;;;;5029046;28;20032;-79
2022/08/03 02:16:48;;;;;;;32.83;31.17;;;25.70;54.90;;;;;;5028361;28;20041;-78
2022/08/03 02:19:15;;;;;;;33.65;31.75;;;25.60;54.90;;;;;;5028817;28;20057;-79
2022/08/03 02:21:41;;;;;;;30.35;28.73;;;25.60;54.80;;;;;;5032006;28;20029;-79
2022/08/03 02:24:08;;;;;;;31.15;29.35;;;25.30;55.10;;;;;;5032722;28;20040;-78
2022/08/03 02:26:34;;;;;;;30.83;29.08;;;25.20;55.50;;;;;;5032886;28;20021;-79
2022/08/03 02:29:02;;;;;;;30.00;28.25;;;25.20;55.50;;;;;;5032716;28;20029;-78
2022/08/03 02:31:29;;;;;;;35.97;34.17;;;25.10;55.70;;;;;;5015575;28;20030;-79
2022/08/03 02:33:58;;;;;;;31.02;29.02;;;25.10;55.60;;;;;;5032449;28;20383;-79
2022/08/03 02:36:25;;;;;;;34.60;32.78;;;25.10;55.40;;;;;;5015894;28;20510;-79
2022/08/03 02:38:53;;;;;;;34.20;32.20;;;25.20;55.20;;;;;;5019256;28;20050;-78
2022/08/03 02:41:31;;;;;;;32.40;30.80;;;25.30;55.00;;;;;;5032465;28;20025;-79
2022/08/03 02:43:59;;;;;;;32.75;31.05;;;25.30;55.10;;;;;;5023029;28;20045;-79
2022/08/03 02:46:30;;;;;;;31.83;29.92;;;25.30;54.80;;;;;;5051631;28;20045;-79
2022/08/03 02:48:56;;;;;;;;;;;25.40;54.80;;;;;;5036030;28;20041;-78
2022/08/03 02:51:22;;;;;;;31.23;29.42;;;25.40;54.70;;;;;;5051889;28;19905;-79
2022/08/03 02:53:48;;;;;;;30.77;29.25;;;25.40;54.70;;;;;;5035668;28;20029;-79
2022/08/03 02:56:14;;;;;;;30.08;28.42;;;25.40;54.90;;;;;;5035636;28;20025;-79
2022/08/03 02:58:41;;;;;;;33.45;31.45;;;25.30;55.00;;;;;;5035164;28;20056;-79
2022/08/03 03:01:08;;;;;;;32.03;30.08;;;25.00;55.50;;;;;;5035076;28;20048;-78
2022/08/03 03:03:34;;;;;;;30.02;28.42;;;24.90;55.80;;;;;;5035462;28;20028;-78
2022/08/03 03:06:00;;;;;;;31.60;29.95;;;24.90;56.10;;;;;;5018757;28;20033;-78
2022/08/03 03:08:26;;;;;;;28.73;27.25;;;24.90;56.10;;;;;;5035629;28;20068;-78
2022/08/03 03:10:53;;;;;;;29.08;27.67;;;25.00;55.90;;;;;;5019172;28;20037;-79
2022/08/03 03:13:20;;;;;;;29.02;27.42;;;24.90;56.20;;;;;;5035210;28;20041;-79
2022/08/03 03:15:46;;;;;;;27.30;25.85;;;24.70;56.60;;;;;;5034708;28;20033;-79
2022/08/03 03:18:12;;;;;;;28.00;26.55;;;24.60;57.00;;;;;;5018504;28;20053;-78
2022/08/03 03:20:39;;;;;;;28.83;27.23;;;24.60;57.10;;;;;;5034877;28;20041;-78
2022/08/03 03:23:05;;;;;;;29.83;28.13;;;24.60;57.00;;;;;;5051746;28;20037;-78
2022/08/03 03:25:32;;;;;;;30.17;28.38;;;24.80;56.50;;;;;;5018664;28;20514;-79
2022/08/03 03:28:01;;;;;;;28.67;27.00;;;24.70;56.40;;;;;;5035020;28;20489;-78
2022/08/03 03:30:27;;;;;;;29.73;28.08;;;24.60;57.20;;;;;;5034068;28;20033;-78
2022/08/03 03:32:53;;;;;;;30.13;28.55;;;24.60;57.00;;;;;;5018227;28;20044;-78
2022/08/03 03:35:19;;;;;;;30.67;29.00;;;24.70;56.50;;;;;;5034160;28;20040;-78
2022/08/03 03:37:45;;;;;;;30.90;29.30;;;24.80;56.50;;;;;;5034743;28;20052;-78
2022/08/03 03:40:13;;;;;;;32.42;30.63;;;24.90;56.30;;;;;;5051075;28;20036;-78
2022/08/03 03:42:39;;;;;;;31.85;30.33;;;24.90;56.30;;;;;;5051579;28;20391;-79
2022/08/03 03:45:06;;;;;;;30.40;28.77;;;24.90;56.30;;;;;;5038190;28;20466;-79
2022/08/03 03:47:33;;;;;;;31.98;30.27;;;24.80;56.80;;;;;;5051284;28;20045;-79
2022/08/03 03:50:00;;;;;;;32.25;30.52;;;24.70;56.70;;;;;;5050559;28;20029;-79
2022/08/03 03:52:26;;;;;;;31.83;30.17;;;24.70;56.60;;;;;;5051211;28;20340;-79
2022/08/03 03:54:52;;;;;;;30.02;28.38;;;24.70;56.40;;;;;;5051009;28;20036;-79
2022/08/03 03:57:18;;;;;;;32.50;30.70;;;24.80;56.60;;;;;;5050943;28;20037;-79
2022/08/03 03:59:45;;;;;;;33.97;32.00;;;24.80;56.40;;;;;;5034666;28;20040;-79
2022/08/03 04:02:11;;;;;;;44.78;42.20;;;24.80;56.50;;;;;;5033620;28;20029;-78
2022/08/03 04:13:08;;;;;;;37.22;35.33;;;24.70;57.10;;;;;;5054410;28;20415;-78
2022/08/03 04:15:35;;;;;;;36.88;34.97;;;24.60;57.20;;;;;;5050231;28;20037;-78
2022/08/03 04:18:01;;;;;;;33.15;31.25;;;24.60;57.40;;;;;;5033771;28;20056;-78
2022/08/03 04:20:28;;;;;;;40.85;38.63;;;24.50;58.10;;;;;;5050674;28;20021;-79
2022/08/03 04:22:54;;;;;;;37.05;35.15;;;24.20;58.80;;;;;;5048509;28;20051;-79
2022/08/03 04:25:20;;;;;;;37.90;35.88;;;24.30;58.30;;;;;;5050342;28;20028;-79
2022/08/03 04:27:47;;;;;;;38.63;36.22;;;24.30;58.90;;;;;;5050504;28;20052;-79
2022/08/03 04:30:13;;;;;;;36.50;34.47;;;24.40;58.20;;;;;;5049883;28;20502;-79
2022/08/03 04:32:39;;;;;;;37.90;35.90;;;24.40;57.80;;;;;;5050106;28;20039;-79
2022/08/03 04:35:05;;;;;;;39.17;37.08;;;24.40;57.80;;;;;;5050086;28;20025;-79
2022/08/03 04:37:37;;;;;;;47.72;45.10;;;24.40;57.90;;;;;;5049968;28;20045;-78
2022/08/03 04:40:33;;;;;;;47.25;44.78;;;24.40;58.10;;;;;;5050182;28;20033;-79
2022/08/03 04:42:59;;;;;;;43.15;40.60;;;24.30;58.20;;;;;;5049365;28;20392;-79
2022/08/03 04:45:29;;;;;;;44.13;41.88;;;24.30;58.50;;;;;;5036352;28;20052;-79
2022/08/03 04:47:55;;;;;;;42.33;40.13;;;24.30;58.30;;;;;;5049741;28;20029;-79
2022/08/03 04:50:21;;;;;;;43.97;41.05;;;24.30;58.20;;;;;;5049997;28;20044;-79
2022/08/03 04:52:47;;;;;;;48.13;45.40;;;24.20;58.50;;;;;;5049988;28;20020;-79
2022/08/03 04:55:30;;;;;;;45.92;43.50;;;24.20;58.80;;;;;;5049880;28;20032;-79
2022/08/03 04:57:56;;;;;;;49.85;46.95;;;24.10;58.90;;;;;;5033470;28;20048;-79
2022/08/03 05:00:23;;;;;;;51.70;48.60;;;24.10;59.10;;;;;;5049398;28;20037;-79
2022/08/03 05:02:49;;;;;;;54.78;51.88;;;24.00;59.10;;;;;;5049533;28;20356;-79
2022/08/03 05:05:16;;;;;;;48.53;45.78;;;24.00;59.10;;;;;;5049892;28;20532;-78
2022/08/03 05:07:43;;;;;;;49.85;46.97;;;24.00;59.30;;;;;;5032919;28;20442;-79
2022/08/03 05:10:09;;;;;;;43.90;41.63;;;24.00;59.30;;;;;;5049694;28;20025;-79
2022/08/03 05:12:35;;;;;;;41.67;39.08;;;24.10;59.50;;;;;;5033018;28;20037;-79
2022/08/03 05:15:02;;;;;;;41.60;39.47;;;24.10;59.20;;;;;;5032934;28;20052;-79
2022/08/03 05:17:28;;;;;;;44.65;42.35;;;24.10;59.40;;;;;;5048572;28;20029;-78
2022/08/03 05:19:54;;;;;;;40.65;37.80;;;24.10;59.20;;;;;;5050746;28;20036;-78
2022/08/03 05:22:20;;;;;;;40.38;38.28;;;23.90;60.40;;;;;;5049534;28;20021;-78
2022/08/03 05:24:47;;;;;;;41.38;39.30;;;23.90;60.50;;;;;;5049592;28;20035;-78
2022/08/03 05:27:17;;;;;;;42.67;40.50;;;23.90;60.20;;;;;;5049539;28;20025;-78
2022/08/03 05:29:44;;;;;;;35.60;33.72;;;23.90;60.60;;;;;;5050795;28;20387;-78
2022/08/03 05:32:10;;;;;;;36.00;34.00;;;23.90;60.80;;;;;;5048877;28;20111;-78
2022/08/03 05:34:36;;;;;;;36.13;34.28;;;23.80;61.20;;;;;;5032461;28;20384;-78
2022/08/03 05:37:03;;;;;;;40.92;38.83;;;23.90;61.30;;;;;;5049379;28;20029;-78
2022/08/03 05:39:29;;;;;;;39.83;37.63;;;24.10;61.70;;;;;;5037311;28;20403;-78
2022/08/03 05:41:55;;;;;;;38.90;36.97;;;24.30;61.10;;;;;;5029045;28;20045;-78
2022/08/03 05:44:24;;;;;;;43.45;41.03;;;24.50;60.90;;;;;;5040801;28;20037;-78
2022/08/03 05:46:50;;;;;;;39.13;36.97;;;24.70;60.40;;;;;;5032383;28;20049;-78
2022/08/03 05:49:17;;;;;;;40.55;38.25;;;24.90;59.20;;;;;;5032605;28;20040;-78
2022/08/03 05:51:43;;;;;;;38.55;36.55;;;24.90;59.00;;;;;;5032410;28;20037;-78
2022/08/03 05:54:09;;;;;;;40.78;38.65;;;24.90;59.20;;;;;;5033771;28;20037;-78
2022/08/03 05:56:35;;;;;;;38.47;36.28;;;25.00;59.00;;;;;;5036775;28;20033;-78
2022/08/03 05:59:02;;;;;;;34.42;32.63;;;25.00;58.90;;;;;;5052916;28;20037;-78
2022/08/03 06:01:31;;;;;;;36.60;33.90;;;25.00;58.80;;;;;;5036348;28;20029;-78
2022/08/03 06:03:57;;;;;;;39.35;36.17;;;25.10;58.80;;;;;;5053120;28;20040;-78
2022/08/03 06:06:23;;;;;;;44.47;42.08;;;25.20;58.50;;;;;;5036680;28;20380;-78
2022/08/03 06:08:49;;;;;;;40.72;38.70;;;25.50;58.40;;;;;;5036409;28;20029;-78
2022/08/03 06:11:15;;;;;;;42.20;40.00;;;25.70;56.70;;;;;;5036634;28;20463;-78
2022/08/03 06:13:42;;;;;;;40.83;38.40;;;25.80;57.00;;;;;;5035831;28;20041;-78
2022/08/03 06:16:08;;;;;;;32.50;30.80;;;26.00;56.60;;;;;;5035884;28;20029;-78
2022/08/03 06:18:34;;;;;;;33.20;31.42;;;26.20;56.00;;;;;;5036249;28;20037;-78
2022/08/03 06:21:01;;;;;;;32.53;30.83;;;26.40;55.60;;;;;;5036403;28;20021;-78
2022/08/03 06:23:27;;;;;;;33.90;32.10;;;26.60;54.20;;;;;;5036110;28;20033;-78
2022/08/03 06:25:53;;;;;;;32.53;30.58;;;26.70;53.30;;;;;;5054125;28;20040;-78
2022/08/03 06:28:19;;;;;;;34.60;32.80;;;26.60;52.90;;;;;;5052288;28;20025;-78
2022/08/03 06:30:45;;;;;;;37.00;35.00;;;26.50;53.10;;;;;;5050330;28;20025;-78
2022/08/03 06:33:11;;;;;;;36.30;34.15;;;26.60;53.30;;;;;;5036127;28;20033;-79
2022/08/03 06:35:37;;;;;;;33.90;32.03;;;26.60;53.40;;;;;;5038276;28;20037;-78
2022/08/03 06:38:03;;;;;;;33.88;31.88;;;26.50;53.20;;;;;;5033660;28;20033;-78
2022/08/03 06:40:30;;;;;;;32.72;30.75;;;26.40;53.20;;;;;;5032555;28;20036;-78
2022/08/03 06:42:56;;;;;;;35.28;33.25;;;26.50;53.10;;;;;;5032337;28;20031;-78
2022/08/03 06:45:22;;;;;;;31.60;29.88;;;26.70;53.40;;;;;;5033893;28;20036;-79
2022/08/03 06:48:00;;;;;;;33.00;31.13;;;26.80;52.40;;;;;;5035727;28;20049;-79
2022/08/03 06:50:27;;;;;;;32.55;30.67;;;26.90;52.20;;;;;;5053861;28;20031;-78
2022/08/03 06:52:53;;;;;;;28.00;26.50;;;27.10;52.20;;;;;;5052473;28;20041;-78
2022/08/03 06:55:19;;;;;;;31.50;29.63;;;27.20;51.80;;;;;;5035845;28;20108;-79
2022/08/03 06:57:45;;;;;;;32.38;30.67;;;27.10;52.00;;;;;;5035128;28;20494;-79
2022/08/03 07:00:11;;;;;;;34.90;33.10;;;27.30;51.80;;;;;;5051716;28;20033;-79
2022/08/03 07:02:38;;;;;;;39.85;37.55;;;27.40;51.20;;;;;;5019063;28;20029;-79
2022/08/03 07:05:05;;;;;;;36.63;34.42;;;27.40;51.50;;;;;;5053717;28;20021;-78
2022/08/03 07:07:31;;;;;;;35.05;33.10;;;27.40;51.50;;;;;;5051202;28;20045;-79
2022/08/03 07:09:57;;;;;;;34.00;32.08;;;27.30;51.60;;;;;;5053006;28;20036;-78
2022/08/03 07:12:25;;;;;;;33.30;31.40;;;27.40;51.50;;;;;;5051662;28;20033;-79
2022/08/03 07:14:51;;;;;;;30.83;29.13;;;27.50;51.20;;;;;;5035312;28;20041;-79
2022/08/03 07:17:17;;;;;;;32.50;30.80;;;27.40;51.50;;;;;;5034929;28;20052;-78
2022/08/03 07:19:43;;;;;;;36.45;34.47;;;27.50;51.40;;;;;;5035218;28;20399;-78
2022/08/03 07:22:10;;;;;;;39.05;36.97;;;27.60;51.40;;;;;;5051784;28;20020;-78
2022/08/03 07:24:36;;;;;;;38.80;36.80;;;27.80;51.00;;;;;;5035253;28;20387;-78
2022/08/03 07:27:02;;;;;;;38.17;36.28;;;27.80;51.00;;;;;;5034639;28;20025;-80
2022/08/03 07:29:28;;;;;;;39.90;37.80;;;27.80;50.80;;;;;;5034555;28;20049;-79
2022/08/03 07:31:54;;;;;;;39.05;36.63;;;28.00;51.00;;;;;;5050999;28;20403;-78
2022/08/03 07:34:21;;;;;;;38.50;36.45;;;28.10;50.90;;;;;;5035053;28;20040;-78
2022/08/03 07:36:47;;;;;;;36.85;34.53;;;28.30;51.10;;;;;;5052633;28;20044;-80
2022/08/03 07:39:13;;;;;;;34.35;32.47;;;28.50;50.50;;;;;;5041491;28;20040;-78
2022/08/03 07:41:39;;;;;;;40.10;38.08;;;28.50;49.90;;;;;;5014618;28;20048;-79
2022/08/03 07:44:05;;;;;;;41.40;38.75;;;28.70;50.10;;;;;;5003221;28;20037;-78
2022/08/03 07:46:32;;;;;;;42.42;40.25;;;28.90;49.20;;;;;;5046286;28;20393;-81
2022/08/03 07:48:58;;;;;;;39.78;37.33;;;29.00;48.80;;;;;;5051214;28;20056;-81
2022/08/03 07:51:24;;;;;;;47.17;44.63;;;29.00;49.20;;;;;;5051085;28;20029;-80
2022/08/03 07:53:50;;;;;;;46.55;43.75;;;29.00;49.30;;;;;;5051414;28;20340;-80
2022/08/03 07:56:16;;;;;;;42.63;40.42;;;29.20;48.50;;;;;;5050705;28;20029;-80
2022/08/03 07:58:42;;;;;;;43.35;40.95;;;29.30;48.40;;;;;;5050950;28;20092;-79
2022/08/03 08:01:08;;;;;;;48.05;45.45;;;29.50;48.20;;;;;;5033798;28;20033;-79
2022/08/03 08:03:34;;;;;;;42.75;40.50;;;29.60;48.10;;;;;;5051113;28;20032;-78
2022/08/03 08:06:01;;;;;;;44.95;42.10;;;29.60;48.30;;;;;;5034627;28;20044;-78
2022/08/03 08:08:27;;;;;;;45.97;43.28;;;29.60;47.70;;;;;;5034037;28;20041;-79
2022/08/03 08:10:53;;;;;;;51.15;48.60;;;29.70;47.60;;;;;;5033516;28;20044;-79
2022/08/03 08:13:19;;;;;;;48.58;46.05;;;29.90;47.80;;;;;;5051900;28;20033;-79
2022/08/03 08:15:45;;;;;;;52.13;49.38;;;30.20;47.50;;;;;;5050343;28;20021;-79
2022/08/03 08:18:11;;;;;;;47.75;45.10;;;30.60;46.80;;;;;;5049539;28;20033;-79
2022/08/03 08:20:37;;;;;;;43.72;41.33;;;30.80;46.00;;;;;;5051912;28;20482;-79
2022/08/03 08:23:05;;;;;;;58.83;55.42;;;30.90;45.30;;;;;;5034521;28;20033;-79
2022/08/03 08:25:32;;;;;;;64.43;61.10;;;31.00;45.80;;;;;;5049995;28;20029;-79
2022/08/03 08:28:03;;;;;;;82.10;77.90;;;31.20;46.00;;;;;;5050415;28;20017;-79
2022/08/03 08:30:29;;;;;;;;;;;31.60;45.40;;;;;;5034172;28;20487;-79
2022/08/03 08:32:56;;;;;;;1999.90;999.90;;;32.00;44.60;;;;;;5050200;28;19912;-79
2022/08/03 08:35:22;;;;;;;65.28;61.58;;;32.40;43.20;;;;;;5050326;28;20033;-79
2022/08/03 08:37:48;;;;;;;81.38;77.07;;;32.30;43.20;;;;;;5050109;28;20041;-79
2022/08/03 08:40:14;;;;;;;1515.60;764.80;;;32.50;43.10;;;;;;5032747;28;20063;-79
2022/08/03 08:42:41;;;;;;;59.13;56.05;;;32.80;42.40;;;;;;5050211;28;20029;-79
2022/08/03 08:45:08;;;;;;;58.83;55.85;;;32.80;42.00;;;;;;5019913;28;20390;-79
2022/08/03 08:47:38;;;;;;;59.42;56.53;;;32.60;42.60;;;;;;5050095;28;20041;-79
2022/08/03 08:50:06;;;;;;;55.47;52.67;;;32.60;42.20;;;;;;5033422;28;20048;-79
2022/08/03 08:52:32;;;;;;;56.65;53.53;;;32.40;42.60;;;;;;5049948;28;20503;-79
2022/08/03 08:55:02;;;;;;;51.83;48.88;;;32.30;42.90;;;;;;5050045;28;20044;-79
2022/08/03 08:57:30;;;;;;;56.65;53.65;;;32.30;42.40;;;;;;5033795;28;20045;-79
2022/08/03 08:59:56;;;;;;;49.22;46.53;;;32.50;42.60;;;;;;5033051;28;20045;-79
2022/08/03 09:02:23;;;;;;;54.80;51.70;;;32.60;41.50;;;;;;5049377;28;20494;-79
2022/08/03 09:04:49;;;;;;;50.42;47.75;;;32.80;42.20;;;;;;5032142;28;20486;-79
2022/08/03 09:07:16;;;;;;;50.67;47.63;;;33.00;41.30;;;;;;5049498;28;20103;-79
2022/08/03 09:09:42;;;;;;;52.03;48.95;;;33.00;40.20;;;;;;5033141;28;20044;-79
2022/08/03 09:12:08;;;;;;;51.63;49.03;;;33.10;40.50;;;;;;5049476;28;20036;-79
2022/08/03 09:14:34;;;;;;;51.70;48.60;;;33.20;40.60;;;;;;5033354;28;20044;-79
2022/08/03 09:17:02;;;;;;;1999.90;999.90;;;33.10;40.70;;;;;;5049107;28;20021;-79
2022/08/03 09:19:29;;;;;;;1999.90;999.90;;;33.30;40.40;;;;;;5049596;28;20044;-79
2022/08/03 09:22:08;;;;;;;1999.90;999.90;;;33.70;39.60;;;;;;5032988;28;20041;-79
2022/08/03 09:24:35;;;;;;;1999.90;999.90;;;34.00;38.40;;;;;;5049521;28;20025;-79
2022/08/03 09:27:01;;;;;;;1999.90;999.90;;;33.90;38.20;;;;;;5049413;28;20048;-79
2022/08/03 09:29:29;;;;;;;1999.90;999.90;;;34.20;37.20;;;;;;5032270;28;20039;-79
2022/08/03 09:32:02;;;;;;;1999.90;999.90;;;34.40;36.60;;;;;;5032364;28;20033;-79
2022/08/03 09:34:29;;;;;;;1999.90;999.90;;;34.30;35.80;;;;;;5049169;28;20107;-79
2022/08/03 09:36:58;;;;;;;1999.90;999.90;;;34.40;36.70;;;;;;5032393;28;20041;-79
2022/08/03 09:39:26;;;;;;;1999.90;999.90;;;34.60;35.80;;;;;;5037874;28;20033;-79
2022/08/03 09:42:10;;;;;;;1999.90;999.90;;;34.80;36.20;;;;;;4996722;28;20040;-79
2022/08/03 09:44:41;;;;;;;1999.90;999.90;;;34.80;35.50;;;;;;5022101;28;20025;-79
2022/08/03 09:47:08;;;;;;;1999.90;999.90;;;35.10;35.20;;;;;;5028836;28;20053;-79
2022/08/03 09:49:35;;;;;;;1999.90;999.90;;;35.20;34.10;;;;;;5013440;28;20030;-79
2022/08/03 09:52:14;;;;;;;1999.90;999.90;;;35.30;34.40;;;;;;5012826;28;20025;-79
2022/08/03 09:54:41;;;;;;;1999.90;999.90;;;35.70;34.40;;;;;;5012690;28;20040;-79
2022/08/03 09:57:07;;;;;;;1999.90;999.90;;;35.70;33.00;;;;;;5029262;28;20033;-79
2022/08/03 09:59:33;;;;;;;1999.90;999.90;;;35.60;32.90;;;;;;5029022;28;20041;-79
2022/08/03 10:02:00;;;;;;;1999.90;999.90;;;35.40;32.50;;;;;;5028783;28;20404;-79
2022/08/03 10:04:26;;;;;;;1999.90;999.90;;;35.10;32.50;;;;;;5012968;28;20036;-79
2022/08/03 10:07:08;;;;;;;1999.90;999.90;;;35.10;32.70;;;;;;5012757;28;20132;-79
2022/08/03 10:09:34;;;;;;;1999.90;999.90;;;35.10;32.80;;;;;;5028880;28;20044;-79
2022/08/03 10:12:11;;;;;;;1999.90;999.90;;;35.10;32.70;;;;;;5029286;28;20045;-79
2022/08/03 10:14:38;;;;;;;1999.90;999.90;;;35.30;32.20;;;;;;5012692;28;20468;-79
2022/08/03 10:17:04;;;;;;;1999.90;999.90;;;35.40;32.50;;;;;;5011968;28;20045;-79
2022/08/03 10:19:30;;;;;;;1999.90;999.90;;;35.40;31.20;;;;;;5028241;28;20408;-79
2022/08/03 10:22:00;;;;;;;1999.90;999.90;;;35.40;30.90;;;;;;5012496;28;20037;-79
2022/08/03 10:24:28;;;;;;;1999.90;999.90;;;35.20;31.20;;;;;;5013035;28;20042;-79
2022/08/03 10:27:07;;;;;;;1999.90;999.90;;;35.30;31.80;;;;;;5028599;28;20048;-79
2022/08/03 10:29:44;;;;;;;1999.90;999.90;;;35.40;31.30;;;;;;5012258;28;20514;-79
2022/08/03 10:32:40;;;;;;;1999.90;999.90;;;35.50;30.30;;;;;;5012221;28;20063;-79
2022/08/03 10:35:12;;;;;;;1999.90;999.90;;;35.40;30.90;;;;;;5017093;28;20041;-79
2022/08/03 10:37:49;;;;;;;1999.90;999.90;;;35.40;30.50;;;;;;4992329;28;20056;-78
2022/08/03 10:40:15;;;;;;;1999.90;999.90;;;35.40;30.50;;;;;;4989396;28;20053;-79
2022/08/03 10:42:44;;;;;;;1999.90;999.90;;;35.40;30.10;;;;;;5011305;28;20037;-79
2022/08/03 10:45:22;;;;;;;1999.90;999.90;;;35.40;30.50;;;;;;5010653;28;20026;-80
2022/08/03 10:47:49;;;;;;;1999.90;999.90;;;35.60;30.90;;;;;;5011152;28;20042;-79
2022/08/03 10:50:15;;;;;;;1999.90;999.90;;;35.90;30.20;;;;;;5011112;28;20045;-79
2022/08/03 10:53:07;;;;;;;1999.90;999.90;;;36.10;30.30;;;;;;5011237;28;20370;-79
2022/08/03 10:58:39;;;;;;;1999.90;999.90;;;36.30;29.60;;;;;;5011345;28;20045;-81
2022/08/03 11:01:10;;;;;;;1999.90;999.90;;;36.20;28.70;;;;;;5010961;28;20068;-78
2022/08/03 11:03:48;;;;;;;;;;;36.20;29.40;;;;;;5011360;28;20037;-78
2022/08/03 11:06:14;;;;;;;1999.90;999.90;;;36.40;29.10;;;;;;5010974;28;20364;-79
2022/08/03 11:08:40;;;;;;;1999.90;999.90;;;36.80;29.00;;;;;;5011212;28;20423;-79
2022/08/03 11:11:18;;;;;;;1999.90;999.90;;;37.00;28.20;;;;;;5013107;28;20038;-79
2022/08/03 11:13:56;;;;;;;1999.90;999.90;;;36.90;28.70;;;;;;5033117;28;20038;-79
2022/08/03 11:16:22;;;;;;;1999.90;999.90;;;37.10;28.80;;;;;;5031335;28;20036;-79
2022/08/03 11:18:59;;;;;;;1999.90;999.90;;;37.30;28.50;;;;;;5014448;28;20056;-79
2022/08/03 11:21:50;;;;;;;1999.90;999.90;;;37.50;28.00;;;;;;5031757;28;20041;-79
2022/08/03 11:24:35;;;;;;;1999.90;999.90;;;37.40;27.10;;;;;;5048257;28;20415;-79
2022/08/03 11:27:16;;;;;;;1999.90;999.90;;;37.50;26.90;;;;;;5033049;28;20029;-79
2022/08/03 11:30:05;;;;;;;1999.90;999.90;;;37.30;27.00;;;;;;5031531;28;20476;-78
2022/08/03 11:32:38;;;;;;;1999.90;999.90;;;36.80;27.40;;;;;;5031183;28;20506;-78
2022/08/03 11:35:29;;;;;;;1999.90;999.90;;;36.40;27.80;;;;;;5041318;28;20049;-78
2022/08/03 11:37:59;;;;;;;1999.90;999.90;;;36.40;28.10;;;;;;5031583;28;20334;-78
2022/08/03 11:40:43;;;;;;;1999.90;999.90;;;36.40;27.90;;;;;;5051987;28;20049;-79
2022/08/03 11:43:28;;;;;;;1999.90;999.90;;;36.50;28.20;;;;;;5050663;28;20055;-81
2022/08/03 11:46:06;;;;;;;1999.90;999.90;;;36.70;28.10;;;;;;5040687;28;20033;-81
2022/08/03 11:48:32;;;;;;;1999.90;999.90;;;37.20;27.80;;;;;;5034181;28;20040;-79
2022/08/03 11:50:59;;;;;;;1999.90;999.90;;;37.50;27.30;;;;;;5050977;28;20048;-79
2022/08/03 11:53:25;;;;;;;1999.90;999.90;;;37.50;26.60;;;;;;5050825;28;20029;-80
2022/08/03 11:55:52;;;;;;;1999.90;999.90;;;36.80;26.80;;;;;;5034457;28;20048;-80
2022/08/03 11:58:19;;;;;;;1999.90;999.90;;;36.70;27.00;;;;;;5034436;28;20048;-80
2022/08/03 12:00:46;;;;;;;1999.90;999.90;;;36.70;26.50;;;;;;5050423;28;20518;-80
2022/08/03 12:03:13;;;;;;;1999.90;999.90;;;36.80;26.50;;;;;;5050695;28;20071;-80
2022/08/03 12:05:45;;;;;;;1999.90;999.90;;;36.70;26.70;;;;;;5051040;28;20029;-81
2022/08/03 12:08:12;;;;;;;1999.90;999.90;;;36.90;27.10;;;;;;5034042;28;20040;-79
2022/08/03 12:10:44;;;;;;;1999.90;999.90;;;37.10;27.30;;;;;;5050873;28;20040;-78
2022/08/03 12:13:10;;;;;;;1999.90;999.90;;;37.30;26.90;;;;;;5050961;28;20025;-79
2022/08/03 12:15:37;;;;;;;1999.90;999.90;;;37.50;25.90;;;;;;5049871;28;20422;-79
2022/08/03 12:18:11;;;;;;;1999.90;999.90;;;37.70;26.10;;;;;;5033934;28;20032;-79
2022/08/03 12:20:37;;;;;;;1999.90;999.90;;;37.90;25.60;;;;;;5050480;28;20043;-79
2022/08/03 12:23:04;;;;;;;1999.90;999.90;;;37.80;25.70;;;;;;5050928;28;20041;-79
2022/08/03 12:25:30;;;;;;;1999.90;999.90;;;37.90;25.20;;;;;;5050537;28;20383;-79
2022/08/03 12:28:25;;;;;;;1999.90;999.90;;;37.60;25.50;;;;;;5050808;28;20499;-79
2022/08/03 12:30:52;;;;;;;1999.90;999.90;;;37.80;25.30;;;;;;5049569;28;20606;-79
2022/08/03 12:33:25;;;;;;;1999.90;999.90;;;37.60;25.30;;;;;;5034089;28;20048;-79
2022/08/03 12:36:05;;;;;;;1999.90;999.90;;;37.80;26.00;;;;;;5050249;28;20357;-79
2022/08/03 12:38:32;;;;;;;;;;;38.00;25.10;;;;;;5033899;28;20032;-79
2022/08/03 12:40:59;;;;;;;1999.90;999.90;;;38.00;25.10;;;;;;5066553;28;20279;-79